sensor_id;sensor_type;location;lat;lon;timestamp;P1;durP1;ratioP1;P2;durP2;ratioP2
11535;SDS011;5824;49.336;8.652;2023-12-28T00:01:16;13.00;;;7.47;;
11535;SDS011;5824;49.336;8.652;2023-12-28T00:03:41;13.77;;;7.00;;
11535;SDS011;5824;49.336;8.652;2023-12-28T00:06:07;10.70;;;6.80;;
11535;SDS011;5824;49.336;8.652;2023-12-28T00:08:33;11.63;;;6.63;;
11535;SDS011;5824;49.336;8.652;2023-12-28T00:10:58;13.40;;;6.47;;
11535;SDS011;5824;49.336;8.652;2023-12-28T00:13:24;11.03;;;6.23;;
11535;SDS011;5824;49.336;8.652;2023-12-28T00:15:49;11.40;;;6.60;;
11535;SDS011;5824;49.336;8.652;2023-12-28T00:18:15;10.33;;;6.33;;
11535;SDS011;5824;49.336;8.652;2023-12-28T00:20:40;10.40;;;6.40;;
11535;SDS011;5824;49.336;8.652;2023-12-28T00:23:06;10.40;;;6.90;;
11535;SDS011;5824;49.336;8.652;2023-12-28T00:25:31;13.13;;;6.73;;
11535;SDS011;5824;49.336;8.652;2023-12-28T00:27:57;15.43;;;6.40;;
11535;SDS011;5824;49.336;8.652;2023-12-28T00:30:23;12.30;;;7.10;;
11535;SDS011;5824;49.336;8.652;2023-12-28T00:32:48;13.10;;;7.37;;
11535;SDS011;5824;49.336;8.652;2023-12-28T00:35:14;11.00;;;6.53;;
11535;SDS011;5824;49.336;8.652;2023-12-28T00:37:39;13.03;;;6.60;;
11535;SDS011;5824;49.336;8.652;2023-12-28T00:40:05;11.70;;;6.77;;
11535;SDS011;5824;49.336;8.652;2023-12-28T00:42:31;11.30;;;7.17;;
11535;SDS011;5824;49.336;8.652;2023-12-28T00:44:56;12.33;;;6.23;;
11535;SDS011;5824;49.336;8.652;2023-12-28T00:47:22;11.77;;;7.20;;
11535;SDS011;5824;49.336;8.652;2023-12-28T00:49:47;11.93;;;6.83;;
11535;SDS011;5824;49.336;8.652;2023-12-28T00:52:13;11.53;;;6.23;;
11535;SDS011;5824;49.336;8.652;2023-12-28T00:54:38;11.37;;;6.37;;
11535;SDS011;5824;49.336;8.652;2023-12-28T00:57:04;13.40;;;7.20;;
11535;SDS011;5824;49.336;8.652;2023-12-28T00:59:30;11.93;;;6.53;;
11535;SDS011;5824;49.336;8.652;2023-12-28T01:01:56;10.30;;;5.83;;
11535;SDS011;5824;49.336;8.652;2023-12-28T01:04:22;16.20;;;7.40;;
11535;SDS011;5824;49.336;8.652;2023-12-28T01:06:48;12.43;;;7.23;;
11535;SDS011;5824;49.336;8.652;2023-12-28T01:09:14;10.10;;;6.57;;
11535;SDS011;5824;49.336;8.652;2023-12-28T01:11:40;10.90;;;6.40;;
11535;SDS011;5824;49.336;8.652;2023-12-28T01:14:05;10.20;;;5.87;;
11535;SDS011;5824;49.336;8.652;2023-12-28T01:16:31;11.07;;;6.50;;
11535;SDS011;5824;49.336;8.652;2023-12-28T01:18:57;10.87;;;6.60;;
11535;SDS011;5824;49.336;8.652;2023-12-28T01:21:22;12.20;;;6.30;;
11535;SDS011;5824;49.336;8.652;2023-12-28T01:23:49;10.80;;;5.80;;
11535;SDS011;5824;49.336;8.652;2023-12-28T01:26:16;8.53;;;5.80;;
11535;SDS011;5824;49.336;8.652;2023-12-28T01:28:42;12.03;;;6.90;;
11535;SDS011;5824;49.336;8.652;2023-12-28T01:31:08;9.10;;;5.63;;
11535;SDS011;5824;49.336;8.652;2023-12-28T01:33:34;12.77;;;6.27;;
11535;SDS011;5824;49.336;8.652;2023-12-28T01:36:00;15.97;;;6.70;;
11535;SDS011;5824;49.336;8.652;2023-12-28T01:38:26;11.30;;;6.23;;
11535;SDS011;5824;49.336;8.652;2023-12-28T01:40:52;10.93;;;6.07;;
11535;SDS011;5824;49.336;8.652;2023-12-28T01:43:18;9.10;;;6.17;;
11535;SDS011;5824;49.336;8.652;2023-12-28T01:45:44;9.63;;;6.50;;
11535;SDS011;5824;49.336;8.652;2023-12-28T01:48:10;9.53;;;6.20;;
11535;SDS011;5824;49.336;8.652;2023-12-28T01:50:37;12.10;;;6.10;;
11535;SDS011;5824;49.336;8.652;2023-12-28T01:53:02;11.03;;;6.10;;
11535;SDS011;5824;49.336;8.652;2023-12-28T01:55:29;11.90;;;6.50;;
11535;SDS011;5824;49.336;8.652;2023-12-28T01:57:55;10.23;;;6.50;;
11535;SDS011;5824;49.336;8.652;2023-12-28T02:00:22;12.37;;;5.80;;
11535;SDS011;5824;49.336;8.652;2023-12-28T02:02:48;10.93;;;6.23;;
11535;SDS011;5824;49.336;8.652;2023-12-28T02:05:13;11.13;;;6.37;;
11535;SDS011;5824;49.336;8.652;2023-12-28T02:07:40;9.33;;;6.10;;
11535;SDS011;5824;49.336;8.652;2023-12-28T02:10:06;9.30;;;6.03;;
11535;SDS011;5824;49.336;8.652;2023-12-28T02:12:32;9.40;;;5.87;;
11535;SDS011;5824;49.336;8.652;2023-12-28T02:14:58;11.20;;;6.10;;
11535;SDS011;5824;49.336;8.652;2023-12-28T02:17:33;10.63;;;5.80;;
11535;SDS011;5824;49.336;8.652;2023-12-28T02:20:03;14.30;;;5.93;;
11535;SDS011;5824;49.336;8.652;2023-12-28T02:22:31;12.63;;;6.23;;
11535;SDS011;5824;49.336;8.652;2023-12-28T02:27:39;11.53;;;6.17;;
11535;SDS011;5824;49.336;8.652;2023-12-28T02:30:07;8.63;;;6.00;;
11535;SDS011;5824;49.336;8.652;2023-12-28T02:35:23;10.27;;;5.50;;
11535;SDS011;5824;49.336;8.652;2023-12-28T02:38:11;10.83;;;5.87;;
11535;SDS011;5824;49.336;8.652;2023-12-28T02:40:40;8.67;;;5.67;;
11535;SDS011;5824;49.336;8.652;2023-12-28T02:43:08;10.47;;;6.07;;
11535;SDS011;5824;49.336;8.652;2023-12-28T02:45:35;8.40;;;5.90;;
11535;SDS011;5824;49.336;8.652;2023-12-28T02:48:02;10.70;;;6.03;;
11535;SDS011;5824;49.336;8.652;2023-12-28T02:50:28;11.93;;;5.40;;
11535;SDS011;5824;49.336;8.652;2023-12-28T02:52:56;8.23;;;5.50;;
11535;SDS011;5824;49.336;8.652;2023-12-28T02:55:22;13.80;;;5.77;;
11535;SDS011;5824;49.336;8.652;2023-12-28T02:57:49;8.43;;;5.30;;
11535;SDS011;5824;49.336;8.652;2023-12-28T03:00:15;8.63;;;5.47;;
11535;SDS011;5824;49.336;8.652;2023-12-28T03:02:41;8.47;;;4.93;;
11535;SDS011;5824;49.336;8.652;2023-12-28T03:05:07;7.97;;;5.20;;
11535;SDS011;5824;49.336;8.652;2023-12-28T03:07:33;10.17;;;6.17;;
11535;SDS011;5824;49.336;8.652;2023-12-28T03:09:59;12.10;;;5.47;;
11535;SDS011;5824;49.336;8.652;2023-12-28T03:12:25;9.70;;;5.30;;
11535;SDS011;5824;49.336;8.652;2023-12-28T03:14:51;8.80;;;5.03;;
11535;SDS011;5824;49.336;8.652;2023-12-28T03:17:17;7.50;;;5.00;;
11535;SDS011;5824;49.336;8.652;2023-12-28T03:19:42;9.10;;;5.13;;
11535;SDS011;5824;49.336;8.652;2023-12-28T03:22:08;7.93;;;5.10;;
11535;SDS011;5824;49.336;8.652;2023-12-28T03:24:33;9.63;;;5.20;;
11535;SDS011;5824;49.336;8.652;2023-12-28T03:27:01;8.47;;;5.07;;
11535;SDS011;5824;49.336;8.652;2023-12-28T03:29:26;7.43;;;4.70;;
11535;SDS011;5824;49.336;8.652;2023-12-28T03:31:52;7.63;;;4.93;;
11535;SDS011;5824;49.336;8.652;2023-12-28T03:34:18;8.57;;;4.67;;
11535;SDS011;5824;49.336;8.652;2023-12-28T03:36:43;7.30;;;4.80;;
11535;SDS011;5824;49.336;8.652;2023-12-28T03:39:09;11.33;;;5.20;;
11535;SDS011;5824;49.336;8.652;2023-12-28T03:41:34;7.10;;;4.57;;
11535;SDS011;5824;49.336;8.652;2023-12-28T03:44:00;7.60;;;4.70;;
11535;SDS011;5824;49.336;8.652;2023-12-28T03:46:25;7.70;;;4.70;;
11535;SDS011;5824;49.336;8.652;2023-12-28T03:48:52;6.53;;;4.27;;
11535;SDS011;5824;49.336;8.652;2023-12-28T03:51:17;9.27;;;4.10;;
11535;SDS011;5824;49.336;8.652;2023-12-28T03:53:43;7.00;;;3.80;;
11535;SDS011;5824;49.336;8.652;2023-12-28T03:56:17;5.10;;;3.77;;
11535;SDS011;5824;49.336;8.652;2023-12-28T03:58:47;7.17;;;3.73;;
11535;SDS011;5824;49.336;8.652;2023-12-28T04:01:12;7.70;;;4.30;;
11535;SDS011;5824;49.336;8.652;2023-12-28T04:03:38;7.33;;;3.60;;
11535;SDS011;5824;49.336;8.652;2023-12-28T04:06:04;5.27;;;3.37;;
11535;SDS011;5824;49.336;8.652;2023-12-28T04:08:30;4.80;;;2.80;;
11535;SDS011;5824;49.336;8.652;2023-12-28T04:10:55;4.27;;;2.70;;
11535;SDS011;5824;49.336;8.652;2023-12-28T04:13:21;4.50;;;2.37;;
11535;SDS011;5824;49.336;8.652;2023-12-28T04:15:47;4.33;;;2.43;;
11535;SDS011;5824;49.336;8.652;2023-12-28T04:18:12;4.53;;;2.27;;
11535;SDS011;5824;49.336;8.652;2023-12-28T04:20:38;3.90;;;2.50;;
11535;SDS011;5824;49.336;8.652;2023-12-28T04:23:03;2.13;;;1.70;;
11535;SDS011;5824;49.336;8.652;2023-12-28T04:25:29;4.13;;;2.57;;
11535;SDS011;5824;49.336;8.652;2023-12-28T04:27:54;3.97;;;2.20;;
11535;SDS011;5824;49.336;8.652;2023-12-28T04:30:20;2.97;;;1.93;;
11535;SDS011;5824;49.336;8.652;2023-12-28T04:32:45;3.20;;;2.13;;
11535;SDS011;5824;49.336;8.652;2023-12-28T04:35:11;3.60;;;2.67;;
11535;SDS011;5824;49.336;8.652;2023-12-28T04:37:36;2.63;;;1.87;;
11535;SDS011;5824;49.336;8.652;2023-12-28T04:40:02;3.13;;;2.00;;
11535;SDS011;5824;49.336;8.652;2023-12-28T04:42:28;2.53;;;2.00;;
11535;SDS011;5824;49.336;8.652;2023-12-28T04:44:54;2.83;;;2.10;;
11535;SDS011;5824;49.336;8.652;2023-12-28T04:47:19;4.73;;;2.10;;
11535;SDS011;5824;49.336;8.652;2023-12-28T04:49:45;2.73;;;1.87;;
11535;SDS011;5824;49.336;8.652;2023-12-28T04:52:10;2.30;;;1.80;;
11535;SDS011;5824;49.336;8.652;2023-12-28T04:54:36;4.10;;;2.00;;
11535;SDS011;5824;49.336;8.652;2023-12-28T04:57:05;2.70;;;2.00;;
11535;SDS011;5824;49.336;8.652;2023-12-28T04:59:30;3.73;;;2.00;;
11535;SDS011;5824;49.336;8.652;2023-12-28T05:01:56;2.57;;;2.07;;
11535;SDS011;5824;49.336;8.652;2023-12-28T05:04:21;3.40;;;2.20;;
11535;SDS011;5824;49.336;8.652;2023-12-28T05:06:47;3.40;;;2.50;;
11535;SDS011;5824;49.336;8.652;2023-12-28T05:09:12;3.97;;;2.30;;
11535;SDS011;5824;49.336;8.652;2023-12-28T05:11:38;4.40;;;2.63;;
11535;SDS011;5824;49.336;8.652;2023-12-28T05:14:03;3.47;;;2.27;;
11535;SDS011;5824;49.336;8.652;2023-12-28T05:16:30;4.20;;;2.23;;
11535;SDS011;5824;49.336;8.652;2023-12-28T05:18:56;4.23;;;2.57;;
11535;SDS011;5824;49.336;8.652;2023-12-28T05:21:21;3.30;;;2.17;;
11535;SDS011;5824;49.336;8.652;2023-12-28T05:23:47;3.70;;;2.20;;
11535;SDS011;5824;49.336;8.652;2023-12-28T05:26:12;3.20;;;2.10;;
11535;SDS011;5824;49.336;8.652;2023-12-28T05:28:38;2.83;;;2.00;;
11535;SDS011;5824;49.336;8.652;2023-12-28T05:31:03;4.80;;;2.07;;
11535;SDS011;5824;49.336;8.652;2023-12-28T05:33:30;2.27;;;2.00;;
11535;SDS011;5824;49.336;8.652;2023-12-28T05:35:55;3.10;;;2.17;;
11535;SDS011;5824;49.336;8.652;2023-12-28T05:38:21;4.70;;;2.20;;
11535;SDS011;5824;49.336;8.652;2023-12-28T05:40:46;3.33;;;2.10;;
11535;SDS011;5824;49.336;8.652;2023-12-28T05:43:12;3.90;;;1.90;;
11535;SDS011;5824;49.336;8.652;2023-12-28T05:45:37;4.50;;;2.10;;
11535;SDS011;5824;49.336;8.652;2023-12-28T05:48:03;3.13;;;1.70;;
11535;SDS011;5824;49.336;8.652;2023-12-28T05:50:29;3.10;;;2.13;;
11535;SDS011;5824;49.336;8.652;2023-12-28T05:52:54;3.40;;;2.30;;
11535;SDS011;5824;49.336;8.652;2023-12-28T05:55:20;2.80;;;2.03;;
11535;SDS011;5824;49.336;8.652;2023-12-28T05:57:46;2.70;;;1.97;;
11535;SDS011;5824;49.336;8.652;2023-12-28T06:00:12;6.83;;;2.63;;
11535;SDS011;5824;49.336;8.652;2023-12-28T06:02:38;4.90;;;2.77;;
11535;SDS011;5824;49.336;8.652;2023-12-28T06:05:04;3.67;;;2.20;;
11535;SDS011;5824;49.336;8.652;2023-12-28T06:07:29;3.50;;;2.20;;
11535;SDS011;5824;49.336;8.652;2023-12-28T06:09:55;3.70;;;2.20;;
11535;SDS011;5824;49.336;8.652;2023-12-28T06:12:20;7.73;;;2.40;;
11535;SDS011;5824;49.336;8.652;2023-12-28T06:14:46;3.60;;;2.20;;
11535;SDS011;5824;49.336;8.652;2023-12-28T06:17:11;4.03;;;2.60;;
11535;SDS011;5824;49.336;8.652;2023-12-28T06:19:39;3.43;;;2.37;;
11535;SDS011;5824;49.336;8.652;2023-12-28T06:22:05;4.27;;;2.37;;
11535;SDS011;5824;49.336;8.652;2023-12-28T06:24:30;5.57;;;2.47;;
11535;SDS011;5824;49.336;8.652;2023-12-28T06:26:56;4.17;;;3.03;;
11535;SDS011;5824;49.336;8.652;2023-12-28T06:29:21;3.57;;;2.57;;
11535;SDS011;5824;49.336;8.652;2023-12-28T06:31:47;4.27;;;2.53;;
11535;SDS011;5824;49.336;8.652;2023-12-28T06:34:12;3.47;;;2.07;;
11535;SDS011;5824;49.336;8.652;2023-12-28T06:36:38;4.90;;;2.53;;
11535;SDS011;5824;49.336;8.652;2023-12-28T06:39:04;3.30;;;2.60;;
11535;SDS011;5824;49.336;8.652;2023-12-28T06:41:29;2.37;;;2.17;;
11535;SDS011;5824;49.336;8.652;2023-12-28T06:43:55;2.40;;;2.00;;
11535;SDS011;5824;49.336;8.652;2023-12-28T06:46:20;6.17;;;2.57;;
11535;SDS011;5824;49.336;8.652;2023-12-28T06:48:46;3.67;;;2.30;;
11535;SDS011;5824;49.336;8.652;2023-12-28T06:51:16;3.10;;;2.40;;
11535;SDS011;5824;49.336;8.652;2023-12-28T06:53:42;3.50;;;2.23;;
11535;SDS011;5824;49.336;8.652;2023-12-28T06:56:09;3.37;;;2.30;;
11535;SDS011;5824;49.336;8.652;2023-12-28T06:58:34;4.67;;;2.30;;
11535;SDS011;5824;49.336;8.652;2023-12-28T07:01:02;5.23;;;2.60;;
11535;SDS011;5824;49.336;8.652;2023-12-28T07:03:28;2.70;;;2.00;;
11535;SDS011;5824;49.336;8.652;2023-12-28T07:05:57;3.60;;;2.30;;
11535;SDS011;5824;49.336;8.652;2023-12-28T07:08:25;3.47;;;2.20;;
11535;SDS011;5824;49.336;8.652;2023-12-28T07:10:51;3.73;;;2.40;;
11535;SDS011;5824;49.336;8.652;2023-12-28T07:13:17;2.70;;;2.00;;
11535;SDS011;5824;49.336;8.652;2023-12-28T07:15:42;4.40;;;2.30;;
11535;SDS011;5824;49.336;8.652;2023-12-28T07:18:08;3.63;;;2.43;;
11535;SDS011;5824;49.336;8.652;2023-12-28T07:20:33;3.20;;;2.23;;
11535;SDS011;5824;49.336;8.652;2023-12-28T07:22:59;3.77;;;2.03;;
11535;SDS011;5824;49.336;8.652;2023-12-28T07:25:24;3.67;;;2.10;;
11535;SDS011;5824;49.336;8.652;2023-12-28T07:27:50;3.90;;;1.90;;
11535;SDS011;5824;49.336;8.652;2023-12-28T07:30:16;3.73;;;2.23;;
11535;SDS011;5824;49.336;8.652;2023-12-28T07:32:42;2.93;;;2.10;;
11535;SDS011;5824;49.336;8.652;2023-12-28T07:35:08;2.53;;;2.30;;
11535;SDS011;5824;49.336;8.652;2023-12-28T07:37:34;2.83;;;1.83;;
11535;SDS011;5824;49.336;8.652;2023-12-28T07:40:00;5.37;;;1.80;;
11535;SDS011;5824;49.336;8.652;2023-12-28T07:42:26;2.13;;;1.93;;
11535;SDS011;5824;49.336;8.652;2023-12-28T07:44:51;5.60;;;1.77;;
11535;SDS011;5824;49.336;8.652;2023-12-28T07:47:17;3.13;;;2.00;;
11535;SDS011;5824;49.336;8.652;2023-12-28T07:49:42;4.47;;;2.07;;
11535;SDS011;5824;49.336;8.652;2023-12-28T07:52:08;10.87;;;2.47;;
11535;SDS011;5824;49.336;8.652;2023-12-28T07:54:33;2.30;;;1.80;;
11535;SDS011;5824;49.336;8.652;2023-12-28T07:56:59;2.60;;;2.13;;
11535;SDS011;5824;49.336;8.652;2023-12-28T07:59:25;3.33;;;2.10;;
11535;SDS011;5824;49.336;8.652;2023-12-28T08:01:50;3.90;;;2.10;;
11535;SDS011;5824;49.336;8.652;2023-12-28T08:04:16;5.63;;;2.57;;
11535;SDS011;5824;49.336;8.652;2023-12-28T08:06:43;5.90;;;2.40;;
11535;SDS011;5824;49.336;8.652;2023-12-28T08:09:08;3.87;;;2.17;;
11535;SDS011;5824;49.336;8.652;2023-12-28T08:11:34;3.80;;;2.30;;
11535;SDS011;5824;49.336;8.652;2023-12-28T08:13:59;3.80;;;2.10;;
11535;SDS011;5824;49.336;8.652;2023-12-28T08:16:25;4.27;;;2.67;;
11535;SDS011;5824;49.336;8.652;2023-12-28T08:18:51;3.77;;;2.40;;
11535;SDS011;5824;49.336;8.652;2023-12-28T08:21:17;5.50;;;2.43;;
11535;SDS011;5824;49.336;8.652;2023-12-28T08:23:42;3.20;;;2.17;;
11535;SDS011;5824;49.336;8.652;2023-12-28T08:26:08;3.33;;;2.43;;
11535;SDS011;5824;49.336;8.652;2023-12-28T08:28:33;4.33;;;2.57;;
11535;SDS011;5824;49.336;8.652;2023-12-28T08:30:59;3.33;;;2.60;;
11535;SDS011;5824;49.336;8.652;2023-12-28T08:33:24;5.53;;;2.53;;
11535;SDS011;5824;49.336;8.652;2023-12-28T08:35:50;5.40;;;2.80;;
11535;SDS011;5824;49.336;8.652;2023-12-28T08:38:16;5.67;;;3.30;;
11535;SDS011;5824;49.336;8.652;2023-12-28T08:40:41;5.10;;;3.10;;
11535;SDS011;5824;49.336;8.652;2023-12-28T08:43:09;5.20;;;3.50;;
11535;SDS011;5824;49.336;8.652;2023-12-28T08:45:35;4.20;;;3.00;;
11535;SDS011;5824;49.336;8.652;2023-12-28T08:48:01;4.00;;;3.10;;
11535;SDS011;5824;49.336;8.652;2023-12-28T08:50:26;4.03;;;2.80;;
11535;SDS011;5824;49.336;8.652;2023-12-28T08:52:52;4.03;;;2.80;;
11535;SDS011;5824;49.336;8.652;2023-12-28T08:55:18;3.60;;;2.97;;
11535;SDS011;5824;49.336;8.652;2023-12-28T08:57:43;7.50;;;3.07;;
11535;SDS011;5824;49.336;8.652;2023-12-28T09:00:09;7.10;;;3.60;;
11535;SDS011;5824;49.336;8.652;2023-12-28T09:02:35;7.20;;;3.67;;
11535;SDS011;5824;49.336;8.652;2023-12-28T09:05:01;5.80;;;2.83;;
11535;SDS011;5824;49.336;8.652;2023-12-28T09:07:27;4.60;;;3.20;;
11535;SDS011;5824;49.336;8.652;2023-12-28T09:09:52;5.53;;;3.40;;
11535;SDS011;5824;49.336;8.652;2023-12-28T09:12:18;5.33;;;3.20;;
11535;SDS011;5824;49.336;8.652;2023-12-28T09:14:43;5.03;;;3.03;;
11535;SDS011;5824;49.336;8.652;2023-12-28T09:17:09;4.77;;;2.90;;
11535;SDS011;5824;49.336;8.652;2023-12-28T09:19:34;4.37;;;3.50;;
11535;SDS011;5824;49.336;8.652;2023-12-28T09:22:00;10.10;;;4.00;;
11535;SDS011;5824;49.336;8.652;2023-12-28T09:24:25;6.87;;;3.40;;
11535;SDS011;5824;49.336;8.652;2023-12-28T09:26:51;6.20;;;3.70;;
11535;SDS011;5824;49.336;8.652;2023-12-28T09:29:16;3.63;;;3.17;;
11535;SDS011;5824;49.336;8.652;2023-12-28T09:31:42;5.13;;;3.37;;
11535;SDS011;5824;49.336;8.652;2023-12-28T09:34:07;3.80;;;3.07;;
11535;SDS011;5824;49.336;8.652;2023-12-28T09:36:33;6.20;;;3.37;;
11535;SDS011;5824;49.336;8.652;2023-12-28T09:38:58;6.20;;;3.17;;
11535;SDS011;5824;49.336;8.652;2023-12-28T09:41:25;6.83;;;3.60;;
11535;SDS011;5824;49.336;8.652;2023-12-28T09:43:58;3.87;;;3.00;;
11535;SDS011;5824;49.336;8.652;2023-12-28T09:46:32;4.63;;;3.30;;
11535;SDS011;5824;49.336;8.652;2023-12-28T09:48:58;6.37;;;3.50;;
11535;SDS011;5824;49.336;8.652;2023-12-28T09:51:23;7.97;;;3.83;;
11535;SDS011;5824;49.336;8.652;2023-12-28T09:53:50;6.47;;;3.40;;
11535;SDS011;5824;49.336;8.652;2023-12-28T09:56:16;9.30;;;4.70;;
11535;SDS011;5824;49.336;8.652;2023-12-28T09:58:42;7.30;;;3.93;;
11535;SDS011;5824;49.336;8.652;2023-12-28T10:01:09;4.93;;;3.10;;
11535;SDS011;5824;49.336;8.652;2023-12-28T10:03:35;10.77;;;3.33;;
11535;SDS011;5824;49.336;8.652;2023-12-28T10:06:01;5.27;;;2.97;;
11535;SDS011;5824;49.336;8.652;2023-12-28T10:08:27;8.33;;;3.50;;
11535;SDS011;5824;49.336;8.652;2023-12-28T10:10:52;4.57;;;3.50;;
11535;SDS011;5824;49.336;8.652;2023-12-28T10:13:19;5.10;;;3.30;;
11535;SDS011;5824;49.336;8.652;2023-12-28T10:15:46;5.67;;;3.80;;
11535;SDS011;5824;49.336;8.652;2023-12-28T10:18:13;6.03;;;3.80;;
11535;SDS011;5824;49.336;8.652;2023-12-28T10:20:38;5.87;;;3.40;;
11535;SDS011;5824;49.336;8.652;2023-12-28T10:23:04;4.80;;;3.50;;
11535;SDS011;5824;49.336;8.652;2023-12-28T10:25:30;10.90;;;3.33;;
11535;SDS011;5824;49.336;8.652;2023-12-28T10:27:57;7.07;;;2.93;;
11535;SDS011;5824;49.336;8.652;2023-12-28T10:30:23;4.60;;;3.07;;
11535;SDS011;5824;49.336;8.652;2023-12-28T10:32:49;5.33;;;3.17;;
11535;SDS011;5824;49.336;8.652;2023-12-28T10:35:14;9.47;;;4.30;;
11535;SDS011;5824;49.336;8.652;2023-12-28T10:37:40;9.10;;;4.67;;
11535;SDS011;5824;49.336;8.652;2023-12-28T10:40:07;6.87;;;3.93;;
11535;SDS011;5824;49.336;8.652;2023-12-28T10:42:37;7.77;;;4.23;;
11535;SDS011;5824;49.336;8.652;2023-12-28T10:45:14;9.80;;;4.03;;
11535;SDS011;5824;49.336;8.652;2023-12-28T10:47:46;5.90;;;3.60;;
11535;SDS011;5824;49.336;8.652;2023-12-28T10:50:17;6.17;;;3.10;;
11535;SDS011;5824;49.336;8.652;2023-12-28T10:52:43;5.23;;;2.50;;
11535;SDS011;5824;49.336;8.652;2023-12-28T10:58:12;6.43;;;3.90;;
11535;SDS011;5824;49.336;8.652;2023-12-28T11:00:47;4.30;;;2.80;;
11535;SDS011;5824;49.336;8.652;2023-12-28T11:03:21;6.93;;;4.07;;
11535;SDS011;5824;49.336;8.652;2023-12-28T11:05:52;6.10;;;3.07;;
11535;SDS011;5824;49.336;8.652;2023-12-28T11:08:18;8.13;;;3.47;;
11535;SDS011;5824;49.336;8.652;2023-12-28T11:10:45;4.80;;;3.27;;
11535;SDS011;5824;49.336;8.652;2023-12-28T11:13:13;6.90;;;3.80;;
11535;SDS011;5824;49.336;8.652;2023-12-28T11:15:40;5.70;;;3.30;;
11535;SDS011;5824;49.336;8.652;2023-12-28T11:18:06;6.77;;;3.03;;
11535;SDS011;5824;49.336;8.652;2023-12-28T11:20:32;4.73;;;2.70;;
11535;SDS011;5824;49.336;8.652;2023-12-28T11:22:58;7.63;;;3.10;;
11535;SDS011;5824;49.336;8.652;2023-12-28T11:25:24;3.40;;;2.80;;
11535;SDS011;5824;49.336;8.652;2023-12-28T11:27:56;7.90;;;3.83;;
11535;SDS011;5824;49.336;8.652;2023-12-28T11:30:25;10.50;;;5.87;;
11535;SDS011;5824;49.336;8.652;2023-12-28T11:32:55;5.03;;;2.90;;
11535;SDS011;5824;49.336;8.652;2023-12-28T11:35:22;6.77;;;3.60;;
11535;SDS011;5824;49.336;8.652;2023-12-28T11:37:48;5.87;;;3.07;;
11535;SDS011;5824;49.336;8.652;2023-12-28T11:40:17;4.53;;;3.30;;
11535;SDS011;5824;49.336;8.652;2023-12-28T11:42:47;4.87;;;3.07;;
11535;SDS011;5824;49.336;8.652;2023-12-28T11:45:18;4.40;;;3.03;;
11535;SDS011;5824;49.336;8.652;2023-12-28T11:47:44;6.50;;;2.93;;
11535;SDS011;5824;49.336;8.652;2023-12-28T11:50:10;5.80;;;2.83;;
11535;SDS011;5824;49.336;8.652;2023-12-28T11:52:37;5.50;;;3.33;;
11535;SDS011;5824;49.336;8.652;2023-12-28T11:55:02;5.67;;;3.63;;
11535;SDS011;5824;49.336;8.652;2023-12-28T11:57:29;5.40;;;3.90;;
11535;SDS011;5824;49.336;8.652;2023-12-28T11:59:55;6.07;;;4.20;;
11535;SDS011;5824;49.336;8.652;2023-12-28T12:02:22;5.90;;;3.90;;
11535;SDS011;5824;49.336;8.652;2023-12-28T12:04:49;4.63;;;2.90;;
11535;SDS011;5824;49.336;8.652;2023-12-28T12:07:14;5.40;;;3.20;;
11535;SDS011;5824;49.336;8.652;2023-12-28T12:09:40;6.50;;;3.20;;
11535;SDS011;5824;49.336;8.652;2023-12-28T12:12:06;3.50;;;2.80;;
11535;SDS011;5824;49.336;8.652;2023-12-28T12:14:32;3.87;;;3.07;;
11535;SDS011;5824;49.336;8.652;2023-12-28T12:16:59;4.17;;;3.17;;
11535;SDS011;5824;49.336;8.652;2023-12-28T12:19:25;5.67;;;3.10;;
11535;SDS011;5824;49.336;8.652;2023-12-28T12:21:54;5.87;;;3.37;;
11535;SDS011;5824;49.336;8.652;2023-12-28T12:24:21;4.97;;;3.00;;
11535;SDS011;5824;49.336;8.652;2023-12-28T12:26:47;5.17;;;3.00;;
11535;SDS011;5824;49.336;8.652;2023-12-28T12:29:13;4.20;;;2.90;;
11535;SDS011;5824;49.336;8.652;2023-12-28T12:31:42;5.30;;;3.03;;
11535;SDS011;5824;49.336;8.652;2023-12-28T12:34:09;4.90;;;3.33;;
11535;SDS011;5824;49.336;8.652;2023-12-28T12:36:36;5.30;;;3.40;;
11535;SDS011;5824;49.336;8.652;2023-12-28T12:39:02;4.77;;;3.10;;
11535;SDS011;5824;49.336;8.652;2023-12-28T12:41:32;5.43;;;3.17;;
11535;SDS011;5824;49.336;8.652;2023-12-28T12:43:58;5.50;;;3.03;;
11535;SDS011;5824;49.336;8.652;2023-12-28T12:46:25;7.47;;;3.17;;
11535;SDS011;5824;49.336;8.652;2023-12-28T12:48:57;4.30;;;3.10;;
11535;SDS011;5824;49.336;8.652;2023-12-28T12:51:24;4.93;;;3.80;;
11535;SDS011;5824;49.336;8.652;2023-12-28T12:53:50;5.60;;;3.20;;
11535;SDS011;5824;49.336;8.652;2023-12-28T12:56:20;4.80;;;3.40;;
11535;SDS011;5824;49.336;8.652;2023-12-28T12:58:46;5.70;;;3.73;;
11535;SDS011;5824;49.336;8.652;2023-12-28T13:01:11;6.10;;;3.83;;
11535;SDS011;5824;49.336;8.652;2023-12-28T13:03:37;4.40;;;3.30;;
11535;SDS011;5824;49.336;8.652;2023-12-28T13:06:03;4.70;;;3.70;;
11535;SDS011;5824;49.336;8.652;2023-12-28T13:08:29;6.63;;;4.17;;
11535;SDS011;5824;49.336;8.652;2023-12-28T13:10:54;5.50;;;4.20;;
11535;SDS011;5824;49.336;8.652;2023-12-28T13:13:20;7.60;;;4.20;;
11535;SDS011;5824;49.336;8.652;2023-12-28T13:15:45;6.17;;;4.13;;
11535;SDS011;5824;49.336;8.652;2023-12-28T13:18:11;6.70;;;4.03;;
11535;SDS011;5824;49.336;8.652;2023-12-28T13:20:37;6.03;;;4.10;;
11535;SDS011;5824;49.336;8.652;2023-12-28T13:23:03;6.63;;;4.30;;
11535;SDS011;5824;49.336;8.652;2023-12-28T13:25:28;7.67;;;4.50;;
11535;SDS011;5824;49.336;8.652;2023-12-28T13:27:54;6.70;;;4.43;;
11535;SDS011;5824;49.336;8.652;2023-12-28T13:30:19;5.97;;;4.50;;
11535;SDS011;5824;49.336;8.652;2023-12-28T13:32:46;8.23;;;4.43;;
11535;SDS011;5824;49.336;8.652;2023-12-28T13:35:12;7.30;;;4.43;;
11535;SDS011;5824;49.336;8.652;2023-12-28T13:37:38;7.30;;;4.33;;
11535;SDS011;5824;49.336;8.652;2023-12-28T13:40:03;6.33;;;4.43;;
11535;SDS011;5824;49.336;8.652;2023-12-28T13:42:30;5.10;;;4.00;;
11535;SDS011;5824;49.336;8.652;2023-12-28T13:44:55;6.60;;;4.17;;
11535;SDS011;5824;49.336;8.652;2023-12-28T13:47:21;8.03;;;4.77;;
11535;SDS011;5824;49.336;8.652;2023-12-28T13:49:46;9.53;;;5.33;;
11535;SDS011;5824;49.336;8.652;2023-12-28T13:52:12;6.07;;;4.30;;
11535;SDS011;5824;49.336;8.652;2023-12-28T13:54:38;6.50;;;4.70;;
11535;SDS011;5824;49.336;8.652;2023-12-28T13:57:04;7.00;;;4.23;;
11535;SDS011;5824;49.336;8.652;2023-12-28T13:59:29;5.40;;;3.90;;
11535;SDS011;5824;49.336;8.652;2023-12-28T14:01:55;7.73;;;4.47;;
11535;SDS011;5824;49.336;8.652;2023-12-28T14:04:20;8.43;;;3.97;;
11535;SDS011;5824;49.336;8.652;2023-12-28T14:06:46;6.17;;;4.17;;
11535;SDS011;5824;49.336;8.652;2023-12-28T14:09:12;6.97;;;4.03;;
11535;SDS011;5824;49.336;8.652;2023-12-28T14:11:37;7.50;;;4.03;;
11535;SDS011;5824;49.336;8.652;2023-12-28T14:14:03;6.37;;;4.17;;
11535;SDS011;5824;49.336;8.652;2023-12-28T14:16:28;7.33;;;4.27;;
11535;SDS011;5824;49.336;8.652;2023-12-28T14:18:54;6.23;;;3.90;;
11535;SDS011;5824;49.336;8.652;2023-12-28T14:21:19;7.33;;;4.07;;
11535;SDS011;5824;49.336;8.652;2023-12-28T14:23:45;8.40;;;4.17;;
11535;SDS011;5824;49.336;8.652;2023-12-28T14:26:12;6.10;;;4.07;;
11535;SDS011;5824;49.336;8.652;2023-12-28T14:28:39;7.43;;;4.27;;
11535;SDS011;5824;49.336;8.652;2023-12-28T14:31:06;6.40;;;4.40;;
11535;SDS011;5824;49.336;8.652;2023-12-28T14:33:33;7.87;;;4.23;;
11535;SDS011;5824;49.336;8.652;2023-12-28T14:35:59;7.77;;;4.73;;
11535;SDS011;5824;49.336;8.652;2023-12-28T14:38:27;7.00;;;4.80;;
11535;SDS011;5824;49.336;8.652;2023-12-28T14:40:53;7.40;;;5.00;;
11535;SDS011;5824;49.336;8.652;2023-12-28T14:43:18;9.50;;;4.60;;
11535;SDS011;5824;49.336;8.652;2023-12-28T14:45:44;6.90;;;4.00;;
11535;SDS011;5824;49.336;8.652;2023-12-28T14:48:11;5.77;;;4.03;;
11535;SDS011;5824;49.336;8.652;2023-12-28T14:50:37;5.33;;;4.17;;
11535;SDS011;5824;49.336;8.652;2023-12-28T14:53:02;10.33;;;4.53;;
11535;SDS011;5824;49.336;8.652;2023-12-28T14:55:28;6.57;;;4.73;;
11535;SDS011;5824;49.336;8.652;2023-12-28T14:57:54;9.17;;;4.40;;
11535;SDS011;5824;49.336;8.652;2023-12-28T15:00:19;7.80;;;4.60;;